sensor_id;sensor_type;location;lat;lon;timestamp;temperature;humidity
31819;DHT22;18384;48.860;9.188;2023-07-28T00:02:14;18.60;99.90
31819;DHT22;18384;48.860;9.188;2023-07-28T00:04:40;18.60;99.90
31819;DHT22;18384;48.860;9.188;2023-07-28T00:07:06;18.60;99.90
31819;DHT22;18384;48.860;9.188;2023-07-28T00:09:32;18.60;99.90
31819;DHT22;18384;48.860;9.188;2023-07-28T00:11:58;18.50;99.90
31819;DHT22;18384;48.860;9.188;2023-07-28T00:14:25;18.50;99.90
31819;DHT22;18384;48.860;9.188;2023-07-28T00:16:52;18.50;99.90
31819;DHT22;18384;48.860;9.188;2023-07-28T00:19:19;18.50;99.90
31819;DHT22;18384;48.860;9.188;2023-07-28T00:21:49;18.50;99.90
31819;DHT22;18384;48.860;9.188;2023-07-28T00:24:15;18.50;99.90
31819;DHT22;18384;48.860;9.188;2023-07-28T00:26:42;18.50;99.90
31819;DHT22;18384;48.860;9.188;2023-07-28T00:29:08;18.50;99.90
31819;DHT22;18384;48.860;9.188;2023-07-28T00:31:34;18.50;99.90
31819;DHT22;18384;48.860;9.188;2023-07-28T00:34:01;18.50;99.90
31819;DHT22;18384;48.860;9.188;2023-07-28T00:36:27;18.50;99.90
31819;DHT22;18384;48.860;9.188;2023-07-28T00:38:53;18.50;99.90
31819;DHT22;18384;48.860;9.188;2023-07-28T00:41:19;18.50;99.90
31819;DHT22;18384;48.860;9.188;2023-07-28T00:43:45;18.50;99.90
31819;DHT22;18384;48.860;9.188;2023-07-28T00:46:11;18.40;99.90
31819;DHT22;18384;48.860;9.188;2023-07-28T00:48:37;18.40;99.90
31819;DHT22;18384;48.860;9.188;2023-07-28T00:51:04;18.40;99.90
31819;DHT22;18384;48.860;9.188;2023-07-28T00:53:31;18.40;99.90
31819;DHT22;18384;48.860;9.188;2023-07-28T00:55:57;18.40;99.90
31819;DHT22;18384;48.860;9.188;2023-07-28T00:58:23;18.40;99.90
31819;DHT22;18384;48.860;9.188;2023-07-28T01:00:49;18.40;99.90
31819;DHT22;18384;48.860;9.188;2023-07-28T01:03:17;18.30;99.90
31819;DHT22;18384;48.860;9.188;2023-07-28T01:05:56;18.30;99.90
31819;DHT22;18384;48.860;9.188;2023-07-28T01:08:46;18.30;99.90
31819;DHT22;18384;48.860;9.188;2023-07-28T01:11:16;18.30;99.90
31819;DHT22;18384;48.860;9.188;2023-07-28T01:13:42;18.20;99.90
31819;DHT22;18384;48.860;9.188;2023-07-28T01:16:08;18.20;99.90
31819;DHT22;18384;48.860;9.188;2023-07-28T01:18:34;18.30;99.90
31819;DHT22;18384;48.860;9.188;2023-07-28T01:21:01;18.30;99.90
31819;DHT22;18384;48.860;9.188;2023-07-28T01:23:49;18.20;99.90
31819;DHT22;18384;48.860;9.188;2023-07-28T01:26:55;18.20;99.90
31819;DHT22;18384;48.860;9.188;2023-07-28T01:29:21;18.20;99.90
31819;DHT22;18384;48.860;9.188;2023-07-28T01:31:47;18.20;99.90
31819;DHT22;18384;48.860;9.188;2023-07-28T01:34:13;18.20;99.90
31819;DHT22;18384;48.860;9.188;2023-07-28T01:36:39;18.20;99.90
31819;DHT22;18384;48.860;9.188;2023-07-28T01:39:06;18.20;99.90
31819;DHT22;18384;48.860;9.188;2023-07-28T01:41:32;18.20;99.90
31819;DHT22;18384;48.860;9.188;2023-07-28T01:43:58;18.10;99.90
31819;DHT22;18384;48.860;9.188;2023-07-28T01:46:24;18.10;99.90
31819;DHT22;18384;48.860;9.188;2023-07-28T01:48:50;18.10;99.90
31819;DHT22;18384;48.860;9.188;2023-07-28T01:51:15;18.20;99.90
31819;DHT22;18384;48.860;9.188;2023-07-28T01:53:41;18.10;99.90
31819;DHT22;18384;48.860;9.188;2023-07-28T01:56:07;18.10;99.90
31819;DHT22;18384;48.860;9.188;2023-07-28T01:58:34;18.10;99.90
31819;DHT22;18384;48.860;9.188;2023-07-28T02:01:00;18.10;99.90
31819;DHT22;18384;48.860;9.188;2023-07-28T02:03:26;18.10;99.90
31819;DHT22;18384;48.860;9.188;2023-07-28T02:05:52;18.10;99.90
31819;DHT22;18384;48.860;9.188;2023-07-28T02:08:18;18.10;99.90
31819;DHT22;18384;48.860;9.188;2023-07-28T02:10:44;18.10;99.90
31819;DHT22;18384;48.860;9.188;2023-07-28T02:13:10;18.10;99.90
31819;DHT22;18384;48.860;9.188;2023-07-28T02:15:36;18.10;99.90
31819;DHT22;18384;48.860;9.188;2023-07-28T02:18:02;18.10;99.90
31819;DHT22;18384;48.860;9.188;2023-07-28T02:20:29;18.10;99.90
31819;DHT22;18384;48.860;9.188;2023-07-28T02:22:55;18.10;99.90
31819;DHT22;18384;48.860;9.188;2023-07-28T02:25:21;18.10;99.90
31819;DHT22;18384;48.860;9.188;2023-07-28T02:27:47;18.10;99.90
31819;DHT22;18384;48.860;9.188;2023-07-28T02:30:13;18.10;99.90
31819;DHT22;18384;48.860;9.188;2023-07-28T02:32:39;18.10;99.90
31819;DHT22;18384;48.860;9.188;2023-07-28T02:35:05;18.10;99.90
31819;DHT22;18384;48.860;9.188;2023-07-28T02:37:31;18.10;99.90
31819;DHT22;18384;48.860;9.188;2023-07-28T02:39:57;20.10;99.90
31819;DHT22;18384;48.860;9.188;2023-07-28T02:42:23;18.20;99.90
31819;DHT22;18384;48.860;9.188;2023-07-28T02:44:50;18.20;99.90
31819;DHT22;18384;48.860;9.188;2023-07-28T02:47:16;18.10;99.90
31819;DHT22;18384;48.860;9.188;2023-07-28T02:49:42;18.20;99.90
31819;DHT22;18384;48.860;9.188;2023-07-28T02:52:08;18.20;99.90
31819;DHT22;18384;48.860;9.188;2023-07-28T02:54:34;18.20;99.90
31819;DHT22;18384;48.860;9.188;2023-07-28T02:57:00;18.20;99.90
31819;DHT22;18384;48.860;9.188;2023-07-28T02:59:26;18.20;99.90
31819;DHT22;18384;48.860;9.188;2023-07-28T03:01:52;18.20;99.90
31819;DHT22;18384;48.860;9.188;2023-07-28T03:04:18;18.30;99.90
31819;DHT22;18384;48.860;9.188;2023-07-28T03:06:47;18.20;99.90
31819;DHT22;18384;48.860;9.188;2023-07-28T03:09:13;16.80;99.90
31819;DHT22;18384;48.860;9.188;2023-07-28T03:11:41;18.30;99.90
31819;DHT22;18384;48.860;9.188;2023-07-28T03:14:08;18.30;99.90
31819;DHT22;18384;48.860;9.188;2023-07-28T03:16:34;18.30;99.90
31819;DHT22;18384;48.860;9.188;2023-07-28T03:19:00;18.30;99.90
31819;DHT22;18384;48.860;9.188;2023-07-28T03:21:29;18.30;99.90
31819;DHT22;18384;48.860;9.188;2023-07-28T03:23:55;18.30;99.90
31819;DHT22;18384;48.860;9.188;2023-07-28T03:26:21;18.40;99.90
31819;DHT22;18384;48.860;9.188;2023-07-28T03:28:47;18.40;99.90
31819;DHT22;18384;48.860;9.188;2023-07-28T03:31:13;18.40;99.90
31819;DHT22;18384;48.860;9.188;2023-07-28T03:33:39;18.40;99.90
31819;DHT22;18384;48.860;9.188;2023-07-28T03:36:05;18.40;99.90
31819;DHT22;18384;48.860;9.188;2023-07-28T03:38:31;18.40;99.90
31819;DHT22;18384;48.860;9.188;2023-07-28T03:40:57;18.40;99.90
31819;DHT22;18384;48.860;9.188;2023-07-28T03:43:23;18.40;99.90
31819;DHT22;18384;48.860;9.188;2023-07-28T03:45:49;18.40;99.90
31819;DHT22;18384;48.860;9.188;2023-07-28T03:48:15;18.40;99.90
31819;DHT22;18384;48.860;9.188;2023-07-28T03:50:41;18.40;99.90
31819;DHT22;18384;48.860;9.188;2023-07-28T03:53:07;18.40;99.90
31819;DHT22;18384;48.860;9.188;2023-07-28T03:55:34;18.50;99.90
31819;DHT22;18384;48.860;9.188;2023-07-28T03:58:00;18.50;99.90
31819;DHT22;18384;48.860;9.188;2023-07-28T04:00:26;20.00;99.90
31819;DHT22;18384;48.860;9.188;2023-07-28T04:02:52;18.50;99.90
31819;DHT22;18384;48.860;9.188;2023-07-28T04:05:18;18.50;99.90
31819;DHT22;18384;48.860;9.188;2023-07-28T04:07:44;18.50;99.90
31819;DHT22;18384;48.860;9.188;2023-07-28T04:10:10;18.50;99.90
31819;DHT22;18384;48.860;9.188;2023-07-28T04:12:36;18.60;99.90
31819;DHT22;18384;48.860;9.188;2023-07-28T04:15:02;18.50;99.90
31819;DHT22;18384;48.860;9.188;2023-07-28T04:17:28;18.60;99.90
31819;DHT22;18384;48.860;9.188;2023-07-28T04:19:54;18.60;99.90
31819;DHT22;18384;48.860;9.188;2023-07-28T04:22:20;18.60;99.90
31819;DHT22;18384;48.860;9.188;2023-07-28T04:24:47;18.60;99.90
31819;DHT22;18384;48.860;9.188;2023-07-28T04:27:13;18.50;99.90
31819;DHT22;18384;48.860;9.188;2023-07-28T04:29:39;18.60;99.90
31819;DHT22;18384;48.860;9.188;2023-07-28T04:32:06;18.60;99.90
31819;DHT22;18384;48.860;9.188;2023-07-28T04:34:35;18.60;99.90
31819;DHT22;18384;48.860;9.188;2023-07-28T04:37:01;18.60;99.90
31819;DHT22;18384;48.860;9.188;2023-07-28T04:39:27;18.60;99.90
31819;DHT22;18384;48.860;9.188;2023-07-28T04:41:53;18.60;99.90
31819;DHT22;18384;48.860;9.188;2023-07-28T04:44:19;18.60;99.90
31819;DHT22;18384;48.860;9.188;2023-07-28T04:46:45;18.60;99.90
31819;DHT22;18384;48.860;9.188;2023-07-28T04:49:14;18.60;99.90
31819;DHT22;18384;48.860;9.188;2023-07-28T04:51:40;18.60;99.90
31819;DHT22;18384;48.860;9.188;2023-07-28T04:54:06;18.60;99.90
31819;DHT22;18384;48.860;9.188;2023-07-28T04:56:32;18.60;99.90
31819;DHT22;18384;48.860;9.188;2023-07-28T04:58:58;18.60;99.90
31819;DHT22;18384;48.860;9.188;2023-07-28T05:01:24;18.60;99.90
31819;DHT22;18384;48.860;9.188;2023-07-28T05:03:50;18.60;99.90
31819;DHT22;18384;48.860;9.188;2023-07-28T05:06:16;18.60;99.90
31819;DHT22;18384;48.860;9.188;2023-07-28T05:08:43;18.60;99.90
31819;DHT22;18384;48.860;9.188;2023-07-28T05:11:09;18.60;99.90
31819;DHT22;18384;48.860;9.188;2023-07-28T05:13:35;18.60;99.90
31819;DHT22;18384;48.860;9.188;2023-07-28T05:16:01;18.60;99.90
31819;DHT22;18384;48.860;9.188;2023-07-28T05:18:27;18.60;99.90
31819;DHT22;18384;48.860;9.188;2023-07-28T05:20:53;18.70;99.90
31819;DHT22;18384;48.860;9.188;2023-07-28T05:23:19;18.70;99.90
31819;DHT22;18384;48.860;9.188;2023-07-28T05:25:46;18.70;99.90
31819;DHT22;18384;48.860;9.188;2023-07-28T05:28:12;18.70;99.90
31819;DHT22;18384;48.860;9.188;2023-07-28T05:30:38;18.70;99.90
31819;DHT22;18384;48.860;9.188;2023-07-28T05:33:04;18.70;99.90
31819;DHT22;18384;48.860;9.188;2023-07-28T05:35:30;18.70;99.90
31819;DHT22;18384;48.860;9.188;2023-07-28T05:37:56;18.70;99.90
31819;DHT22;18384;48.860;9.188;2023-07-28T05:40:22;18.80;99.90
31819;DHT22;18384;48.860;9.188;2023-07-28T05:42:48;18.80;99.90
31819;DHT22;18384;48.860;9.188;2023-07-28T05:45:14;18.80;99.90
31819;DHT22;18384;48.860;9.188;2023-07-28T05:47:40;18.90;99.90
31819;DHT22;18384;48.860;9.188;2023-07-28T05:50:06;18.90;99.90
31819;DHT22;18384;48.860;9.188;2023-07-28T05:52:32;18.90;99.90
31819;DHT22;18384;48.860;9.188;2023-07-28T05:54:58;18.90;99.90
31819;DHT22;18384;48.860;9.188;2023-07-28T05:57:24;18.90;99.90
31819;DHT22;18384;48.860;9.188;2023-07-28T05:59:50;19.00;99.90
31819;DHT22;18384;48.860;9.188;2023-07-28T06:02:16;19.00;99.90
31819;DHT22;18384;48.860;9.188;2023-07-28T06:04:42;19.00;99.90
31819;DHT22;18384;48.860;9.188;2023-07-28T06:07:09;19.00;99.90
31819;DHT22;18384;48.860;9.188;2023-07-28T06:09:35;19.00;99.90
31819;DHT22;18384;48.860;9.188;2023-07-28T06:12:01;19.00;99.90
31819;DHT22;18384;48.860;9.188;2023-07-28T06:14:27;19.00;99.90
31819;DHT22;18384;48.860;9.188;2023-07-28T06:16:53;19.00;99.90
31819;DHT22;18384;48.860;9.188;2023-07-28T06:19:19;19.00;99.90
31819;DHT22;18384;48.860;9.188;2023-07-28T06:21:52;19.00;99.90
31819;DHT22;18384;48.860;9.188;2023-07-28T06:24:18;19.00;99.90
31819;DHT22;18384;48.860;9.188;2023-07-28T06:26:44;19.10;99.90
31819;DHT22;18384;48.860;9.188;2023-07-28T06:29:10;19.10;99.90
31819;DHT22;18384;48.860;9.188;2023-07-28T06:31:36;19.10;99.90
31819;DHT22;18384;48.860;9.188;2023-07-28T06:34:02;19.10;99.90
31819;DHT22;18384;48.860;9.188;2023-07-28T06:36:28;19.20;99.90
31819;DHT22;18384;48.860;9.188;2023-07-28T06:38:54;19.20;99.90
31819;DHT22;18384;48.860;9.188;2023-07-28T06:41:21;19.20;99.90
31819;DHT22;18384;48.860;9.188;2023-07-28T06:43:47;19.30;99.90
31819;DHT22;18384;48.860;9.188;2023-07-28T06:46:14;19.30;99.90
31819;DHT22;18384;48.860;9.188;2023-07-28T06:48:40;19.30;99.90
31819;DHT22;18384;48.860;9.188;2023-07-28T06:51:06;19.40;99.90
31819;DHT22;18384;48.860;9.188;2023-07-28T06:53:32;19.40;99.90
31819;DHT22;18384;48.860;9.188;2023-07-28T06:56:00;19.50;99.90
31819;DHT22;18384;48.860;9.188;2023-07-28T06:58:26;19.60;99.90
31819;DHT22;18384;48.860;9.188;2023-07-28T07:00:51;19.60;99.90
31819;DHT22;18384;48.860;9.188;2023-07-28T07:03:19;19.70;99.90
31819;DHT22;18384;48.860;9.188;2023-07-28T07:05:45;19.80;99.90
31819;DHT22;18384;48.860;9.188;2023-07-28T07:08:11;19.80;99.90
31819;DHT22;18384;48.860;9.188;2023-07-28T07:10:37;20.00;99.90
31819;DHT22;18384;48.860;9.188;2023-07-28T07:13:03;20.00;99.90
31819;DHT22;18384;48.860;9.188;2023-07-28T07:15:29;20.10;99.90
31819;DHT22;18384;48.860;9.188;2023-07-28T07:17:55;20.20;99.90
31819;DHT22;18384;48.860;9.188;2023-07-28T07:20:21;20.30;99.90
31819;DHT22;18384;48.860;9.188;2023-07-28T07:22:47;20.30;99.90
31819;DHT22;18384;48.860;9.188;2023-07-28T07:25:13;20.30;99.90
31819;DHT22;18384;48.860;9.188;2023-07-28T07:27:39;20.40;99.90
31819;DHT22;18384;48.860;9.188;2023-07-28T07:30:05;20.30;99.90
31819;DHT22;18384;48.860;9.188;2023-07-28T07:32:32;20.40;99.90
31819;DHT22;18384;48.860;9.188;2023-07-28T07:34:59;20.50;99.90
31819;DHT22;18384;48.860;9.188;2023-07-28T07:37:25;20.50;99.90
31819;DHT22;18384;48.860;9.188;2023-07-28T07:39:51;20.60;99.90
31819;DHT22;18384;48.860;9.188;2023-07-28T07:42:17;20.70;99.90
31819;DHT22;18384;48.860;9.188;2023-07-28T07:44:43;20.70;99.90
31819;DHT22;18384;48.860;9.188;2023-07-28T07:47:12;20.80;99.90
31819;DHT22;18384;48.860;9.188;2023-07-28T07:49:39;20.90;99.90
31819;DHT22;18384;48.860;9.188;2023-07-28T07:52:08;21.00;99.90
31819;DHT22;18384;48.860;9.188;2023-07-28T07:54:35;21.10;99.90
31819;DHT22;18384;48.860;9.188;2023-07-28T07:57:01;21.10;99.90
31819;DHT22;18384;48.860;9.188;2023-07-28T07:59:28;21.10;99.90
31819;DHT22;18384;48.860;9.188;2023-07-28T08:01:56;21.10;99.90
31819;DHT22;18384;48.860;9.188;2023-07-28T08:04:22;21.20;99.90
31819;DHT22;18384;48.860;9.188;2023-07-28T08:06:48;21.20;99.90
31819;DHT22;18384;48.860;9.188;2023-07-28T08:09:15;21.20;99.90
31819;DHT22;18384;48.860;9.188;2023-07-28T08:11:41;21.20;99.90
31819;DHT22;18384;48.860;9.188;2023-07-28T08:15:47;19.10;99.90
31819;DHT22;18384;48.860;9.188;2023-07-28T08:18:14;21.30;99.90
31819;DHT22;18384;48.860;9.188;2023-07-28T08:20:40;21.30;99.90
31819;DHT22;18384;48.860;9.188;2023-07-28T08:23:07;21.40;99.90
31819;DHT22;18384;48.860;9.188;2023-07-28T08:25:33;21.40;99.90
31819;DHT22;18384;48.860;9.188;2023-07-28T08:28:00;21.40;99.90
31819;DHT22;18384;48.860;9.188;2023-07-28T08:30:26;21.40;99.90
31819;DHT22;18384;48.860;9.188;2023-07-28T08:32:52;21.40;99.90
31819;DHT22;18384;48.860;9.188;2023-07-28T08:35:18;21.40;99.90
31819;DHT22;18384;48.860;9.188;2023-07-28T08:37:45;21.50;99.90
31819;DHT22;18384;48.860;9.188;2023-07-28T08:40:11;21.50;99.90
31819;DHT22;18384;48.860;9.188;2023-07-28T08:42:39;21.40;99.90
31819;DHT22;18384;48.860;9.188;2023-07-28T08:45:06;21.50;99.90
31819;DHT22;18384;48.860;9.188;2023-07-28T08:47:36;21.60;99.90
31819;DHT22;18384;48.860;9.188;2023-07-28T08:50:03;21.60;99.90
31819;DHT22;18384;48.860;9.188;2023-07-28T08:52:31;21.50;99.90
31819;DHT22;18384;48.860;9.188;2023-07-28T08:54:58;21.40;99.90
31819;DHT22;18384;48.860;9.188;2023-07-28T08:57:24;21.40;99.90
31819;DHT22;18384;48.860;9.188;2023-07-28T08:59:51;21.50;99.90
31819;DHT22;18384;48.860;9.188;2023-07-28T09:02:18;21.40;99.90
31819;DHT22;18384;48.860;9.188;2023-07-28T09:04:46;21.30;99.90
31819;DHT22;18384;48.860;9.188;2023-07-28T09:07:13;21.30;99.90
31819;DHT22;18384;48.860;9.188;2023-07-28T09:09:40;21.30;99.90
31819;DHT22;18384;48.860;9.188;2023-07-28T09:12:07;21.30;99.90
31819;DHT22;18384;48.860;9.188;2023-07-28T09:14:37;21.40;99.90
31819;DHT22;18384;48.860;9.188;2023-07-28T09:17:12;21.60;99.90
31819;DHT22;18384;48.860;9.188;2023-07-28T09:19:56;21.80;99.90
31819;DHT22;18384;48.860;9.188;2023-07-28T09:22:23;22.00;99.90
31819;DHT22;18384;48.860;9.188;2023-07-28T09:24:50;22.10;99.90
31819;DHT22;18384;48.860;9.188;2023-07-28T09:27:25;22.10;99.90
31819;DHT22;18384;48.860;9.188;2023-07-28T09:29:53;22.20;99.90
31819;DHT22;18384;48.860;9.188;2023-07-28T09:32:31;22.10;99.30
31819;DHT22;18384;48.860;9.188;2023-07-28T09:35:12;22.00;99.90
31819;DHT22;18384;48.860;9.188;2023-07-28T09:37:43;22.00;99.90
31819;DHT22;18384;48.860;9.188;2023-07-28T09:40:12;22.10;99.90
31819;DHT22;18384;48.860;9.188;2023-07-28T09:42:49;22.20;99.90
31819;DHT22;18384;48.860;9.188;2023-07-28T09:45:17;22.30;99.70
31819;DHT22;18384;48.860;9.188;2023-07-28T09:47:47;22.30;99.40
31819;DHT22;18384;48.860;9.188;2023-07-28T09:50:15;22.30;99.40
31819;DHT22;18384;48.860;9.188;2023-07-28T09:52:47;22.40;98.90
31819;DHT22;18384;48.860;9.188;2023-07-28T09:55:15;22.50;98.60
31819;DHT22;18384;48.860;9.188;2023-07-28T09:57:50;22.60;98.70
31819;DHT22;18384;48.860;9.188;2023-07-28T10:00:19;22.60;99.20
31819;DHT22;18384;48.860;9.188;2023-07-28T10:02:46;22.60;99.70
31819;DHT22;18384;48.860;9.188;2023-07-28T10:05:14;22.40;99.90
31819;DHT22;18384;48.860;9.188;2023-07-28T10:07:45;22.50;99.90
31819;DHT22;18384;48.860;9.188;2023-07-28T10:10:14;22.50;99.90
31819;DHT22;18384;48.860;9.188;2023-07-28T10:12:50;22.50;99.90
31819;DHT22;18384;48.860;9.188;2023-07-28T10:15:18;22.60;99.40
31819;DHT22;18384;48.860;9.188;2023-07-28T10:17:51;22.60;99.60
31819;DHT22;18384;48.860;9.188;2023-07-28T10:20:37;22.70;99.70
31819;DHT22;18384;48.860;9.188;2023-07-28T10:23:20;22.70;99.40
31819;DHT22;18384;48.860;9.188;2023-07-28T10:25:46;22.70;99.50
31819;DHT22;18384;48.860;9.188;2023-07-28T10:28:29;22.70;99.50
31819;DHT22;18384;48.860;9.188;2023-07-28T10:31:08;22.70;99.70
31819;DHT22;18384;48.860;9.188;2023-07-28T10:33:41;22.60;99.60
31819;DHT22;18384;48.860;9.188;2023-07-28T10:36:32;22.50;99.90
31819;DHT22;18384;48.860;9.188;2023-07-28T10:39:16;22.40;99.90
31819;DHT22;18384;48.860;9.188;2023-07-28T10:42:05;22.40;99.60
31819;DHT22;18384;48.860;9.188;2023-07-28T10:47:20;22.40;99.80
31819;DHT22;18384;48.860;9.188;2023-07-28T10:49:47;22.30;99.90
31819;DHT22;18384;48.860;9.188;2023-07-28T10:52:16;22.20;99.90
31819;DHT22;18384;48.860;9.188;2023-07-28T10:54:42;22.10;99.90
31819;DHT22;18384;48.860;9.188;2023-07-28T10:57:08;22.10;99.90
31819;DHT22;18384;48.860;9.188;2023-07-28T10:59:37;22.00;99.90
31819;DHT22;18384;48.860;9.188;2023-07-28T11:02:03;22.00;99.90
31819;DHT22;18384;48.860;9.188;2023-07-28T11:04:29;21.90;99.90
31819;DHT22;18384;48.860;9.188;2023-07-28T11:06:55;21.90;99.90
31819;DHT22;18384;48.860;9.188;2023-07-28T11:09:22;21.90;99.90
31819;DHT22;18384;48.860;9.188;2023-07-28T11:11:49;21.80;99.90
31819;DHT22;18384;48.860;9.188;2023-07-28T11:14:17;21.90;99.90
31819;DHT22;18384;48.860;9.188;2023-07-28T11:16:44;21.90;99.90
31819;DHT22;18384;48.860;9.188;2023-07-28T11:19:13;21.90;99.90
31819;DHT22;18384;48.860;9.188;2023-07-28T11:21:41;22.10;99.90
31819;DHT22;18384;48.860;9.188;2023-07-28T11:24:08;22.20;99.90
31819;DHT22;18384;48.860;9.188;2023-07-28T11:26:36;22.50;99.90
31819;DHT22;18384;48.860;9.188;2023-07-28T11:29:04;22.50;99.90
31819;DHT22;18384;48.860;9.188;2023-07-28T11:31:30;22.60;99.50
31819;DHT22;18384;48.860;9.188;2023-07-28T11:33:56;22.70;99.30
31819;DHT22;18384;48.860;9.188;2023-07-28T11:36:31;22.80;99.20
31819;DHT22;18384;48.860;9.188;2023-07-28T11:38:59;22.90;97.80
31819;DHT22;18384;48.860;9.188;2023-07-28T11:41:26;23.00;97.40
31819;DHT22;18384;48.860;9.188;2023-07-28T11:43:52;23.10;97.10
31819;DHT22;18384;48.860;9.188;2023-07-28T11:46:35;23.30;96.70
31819;DHT22;18384;48.860;9.188;2023-07-28T11:49:15;23.50;96.70
31819;DHT22;18384;48.860;9.188;2023-07-28T11:51:55;23.70;95.60
31819;DHT22;18384;48.860;9.188;2023-07-28T11:54:25;23.80;96.70
31819;DHT22;18384;48.860;9.188;2023-07-28T11:56:55;24.00;95.90
31819;DHT22;18384;48.860;9.188;2023-07-28T11:59:23;24.10;95.30
31819;DHT22;18384;48.860;9.188;2023-07-28T12:01:57;24.10;94.70
31819;DHT22;18384;48.860;9.188;2023-07-28T12:04:26;24.20;94.70
31819;DHT22;18384;48.860;9.188;2023-07-28T12:07:15;24.20;94.30
31819;DHT22;18384;48.860;9.188;2023-07-28T12:09:51;24.20;94.60
31819;DHT22;18384;48.860;9.188;2023-07-28T12:12:22;24.20;95.00
31819;DHT22;18384;48.860;9.188;2023-07-28T12:14:50;24.20;95.60
31819;DHT22;18384;48.860;9.188;2023-07-28T12:17:20;24.20;95.40
31819;DHT22;18384;48.860;9.188;2023-07-28T12:20:02;24.00;97.30
31819;DHT22;18384;48.860;9.188;2023-07-28T12:22:42;23.90;97.00
31819;DHT22;18384;48.860;9.188;2023-07-28T12:25:10;23.80;96.60
31819;DHT22;18384;48.860;9.188;2023-07-28T12:27:36;23.70;97.00
31819;DHT22;18384;48.860;9.188;2023-07-28T12:30:03;23.60;97.40
31819;DHT22;18384;48.860;9.188;2023-07-28T12:32:30;23.50;98.30
31819;DHT22;18384;48.860;9.188;2023-07-28T12:34:56;23.40;98.70
31819;DHT22;18384;48.860;9.188;2023-07-28T12:37:22;23.20;98.80
31819;DHT22;18384;48.860;9.188;2023-07-28T12:39:48;23.10;98.90
31819;DHT22;18384;48.860;9.188;2023-07-28T12:42:15;23.00;98.70
31819;DHT22;18384;48.860;9.188;2023-07-28T12:44:41;22.90;98.60
31819;DHT22;18384;48.860;9.188;2023-07-28T12:47:08;23.00;98.30
31819;DHT22;18384;48.860;9.188;2023-07-28T12:49:34;23.00;98.50
31819;DHT22;18384;48.860;9.188;2023-07-28T12:52:04;23.10;98.50
31819;DHT22;18384;48.860;9.188;2023-07-28T12:54:35;23.30;98.50
31819;DHT22;18384;48.860;9.188;2023-07-28T12:57:01;23.40;98.80
31819;DHT22;18384;48.860;9.188;2023-07-28T12:59:27;23.60;98.20
31819;DHT22;18384;48.860;9.188;2023-07-28T13:01:55;23.60;97.30
31819;DHT22;18384;48.860;9.188;2023-07-28T13:04:21;23.60;97.30
31819;DHT22;18384;48.860;9.188;2023-07-28T13:06:47;23.60;97.40
31819;DHT22;18384;48.860;9.188;2023-07-28T13:09:13;23.50;97.50
31819;DHT22;18384;48.860;9.188;2023-07-28T13:11:39;23.40;97.70
31819;DHT22;18384;48.860;9.188;2023-07-28T13:14:05;23.30;97.80
31819;DHT22;18384;48.860;9.188;2023-07-28T13:16:32;23.10;98.10
31819;DHT22;18384;48.860;9.188;2023-07-28T13:18:57;23.00;98.60
31819;DHT22;18384;48.860;9.188;2023-07-28T13:21:25;22.80;98.90
31819;DHT22;18384;48.860;9.188;2023-07-28T13:23:51;22.60;99.30
31819;DHT22;18384;48.860;9.188;2023-07-28T13:26:17;22.50;99.80
31819;DHT22;18384;48.860;9.188;2023-07-28T13:28:43;22.50;99.90
31819;DHT22;18384;48.860;9.188;2023-07-28T13:31:16;22.40;99.90
31819;DHT22;18384;48.860;9.188;2023-07-28T13:33:43;22.40;99.90
31819;DHT22;18384;48.860;9.188;2023-07-28T13:36:10;22.30;99.90
31819;DHT22;18384;48.860;9.188;2023-07-28T13:38:37;22.20;99.90
31819;DHT22;18384;48.860;9.188;2023-07-28T13:41:04;22.20;99.90
31819;DHT22;18384;48.860;9.188;2023-07-28T13:43:34;22.20;99.90
31819;DHT22;18384;48.860;9.188;2023-07-28T13:46:02;22.20;99.90
31819;DHT22;18384;48.860;9.188;2023-07-28T13:48:30;22.10;99.90
31819;DHT22;18384;48.860;9.188;2023-07-28T13:50:57;22.10;99.90
31819;DHT22;18384;48.860;9.188;2023-07-28T13:53:23;22.00;99.90
31819;DHT22;18384;48.860;9.188;2023-07-28T13:55:50;21.90;99.90
31819;DHT22;18384;48.860;9.188;2023-07-28T13:58:16;21.80;99.90
31819;DHT22;18384;48.860;9.188;2023-07-28T14:00:42;21.70;99.90
31819;DHT22;18384;48.860;9.188;2023-07-28T14:03:09;21.60;99.90
31819;DHT22;18384;48.860;9.188;2023-07-28T14:05:35;21.50;99.90
31819;DHT22;18384;48.860;9.188;2023-07-28T14:08:02;21.40;99.90
31819;DHT22;18384;48.860;9.188;2023-07-28T14:10:28;21.30;99.90
31819;DHT22;18384;48.860;9.188;2023-07-28T14:12:54;21.30;99.90
31819;DHT22;18384;48.860;9.188;2023-07-28T14:15:20;21.20;99.90
31819;DHT22;18384;48.860;9.188;2023-07-28T14:17:46;21.20;99.90
31819;DHT22;18384;48.860;9.188;2023-07-28T14:20:12;21.10;99.90
31819;DHT22;18384;48.860;9.188;2023-07-28T14:22:38;21.10;99.90
31819;DHT22;18384;48.860;9.188;2023-07-28T14:25:05;21.10;99.90
31819;DHT22;18384;48.860;9.188;2023-07-28T14:27:31;21.10;99.90
31819;DHT22;18384;48.860;9.188;2023-07-28T14:29:57;21.00;99.90
31819;DHT22;18384;48.860;9.188;2023-07-28T14:32:23;21.00;99.90
31819;DHT22;18384;48.860;9.188;2023-07-28T14:34:49;21.00;99.90
31819;DHT22;18384;48.860;9.188;2023-07-28T14:37:15;21.00;99.90
31819;DHT22;18384;48.860;9.188;2023-07-28T14:39:42;21.00;99.90
31819;DHT22;18384;48.860;9.188;2023-07-28T14:42:08;21.00;99.90
31819;DHT22;18384;48.860;9.188;2023-07-28T14:44:34;21.10;99.90
31819;DHT22;18384;48.860;9.188;2023-07-28T14:47:01;21.20;99.90
31819;DHT22;18384;48.860;9.188;2023-07-28T14:49:27;21.30;99.90
31819;DHT22;18384;48.860;9.188;2023-07-28T14:51:54;21.30;99.90
31819;DHT22;18384;48.860;9.188;2023-07-28T14:54:20;21.40;99.90
31819;DHT22;18384;48.860;9.188;2023-07-28T14:56:47;21.50;99.90
31819;DHT22;18384;48.860;9.188;2023-07-28T14:59:13;21.50;99.90
31819;DHT22;18384;48.860;9.188;2023-07-28T15:01:39;21.50;99.90
31819;DHT22;18384;48.860;9.188;2023-07-28T15:04:05;21.50;99.90
31819;DHT22;18384;48.860;9.188;2023-07-28T15:06:32;21.50;99.90
31819;DHT22;18384;48.860;9.188;2023-07-28T15:08:58;21.40;99.90
31819;DHT22;18384;48.860;9.188;2023-07-28T15:11:24;21.40;99.90
31819;DHT22;18384;48.860;9.188;2023-07-28T15:13:51;21.40;99.90
31819;DHT22;18384;48.860;9.188;2023-07-28T15:16:17;21.40;99.90
31819;DHT22;18384;48.860;9.188;2023-07-28T15:18:43;21.50;99.90
31819;DHT22;18384;48.860;9.188;2023-07-28T15:21:09;21.50;99.90
31819;DHT22;18384;48.860;9.188;2023-07-28T15:23:38;21.50;99.90
31819;DHT22;18384;48.860;9.188;2023-07-28T15:26:04;21.50;99.90
31819;DHT22;18384;48.860;9.188;2023-07-28T15:28:30;21.60;99.90
31819;DHT22;18384;48.860;9.188;2023-07-28T15:30:56;21.60;99.90
31819;DHT22;18384;48.860;9.188;2023-07-28T15:33:22;21.60;99.90
31819;DHT22;18384;48.860;9.188;2023-07-28T15:35:54;21.60;99.90
31819;DHT22;18384;48.860;9.188;2023-07-28T15:38:21;21.70;99.90